createdAt,value
2023-04-02T00:01:23.129Z,100.00
2023-04-02T00:06:32.356Z,100.00
2023-04-02T00:11:37.000Z,100.00
2023-04-02T00:16:40.221Z,100.00
2023-04-02T00:21:44.226Z,100.00
2023-04-02T00:26:50.122Z,100.00
2023-04-02T00:31:53.465Z,100.00
2023-04-02T00:36:56.116Z,100.00
2023-04-02T00:42:05.614Z,100.00
2023-04-02T00:47:22.188Z,100.00
2023-04-02T00:52:35.227Z,100.00
2023-04-02T00:57:41.316Z,100.00
2023-04-02T01:02:43.446Z,100.00
2023-04-02T01:08:18.239Z,100.00
2023-04-02T01:13:46.629Z,100.00
2023-04-02T01:19:01.319Z,100.00
2023-04-02T01:24:07.012Z,100.00
2023-04-02T01:29:16.136Z,100.00
2023-04-02T01:34:21.955Z,100.00
2023-04-02T01:39:54.283Z,100.00
2023-04-02T01:45:15.133Z,100.00
2023-04-02T01:50:21.800Z,100.00
2023-04-02T01:55:38.518Z,100.00
2023-04-02T02:00:55.988Z,100.00
2023-04-02T02:05:59.606Z,100.00
2023-04-02T02:11:02.381Z,100.00
2023-04-02T02:16:06.968Z,100.00
2023-04-02T02:21:10.227Z,100.00
2023-04-02T02:26:13.131Z,100.00
2023-04-02T02:31:27.720Z,100.00
2023-04-02T02:36:56.111Z,100.00
2023-04-02T02:42:08.424Z,100.00
2023-04-02T02:47:19.109Z,100.00
2023-04-02T02:52:44.939Z,100.00
2023-04-02T02:57:52.861Z,100.00
2023-04-02T03:02:56.807Z,100.00
2023-04-02T03:08:02.859Z,100.00
2023-04-02T03:13:26.649Z,100.00
2023-04-02T03:18:34.056Z,100.00
2023-04-02T03:23:42.369Z,100.00
2023-04-02T03:28:59.643Z,100.00
2023-04-02T03:34:11.338Z,100.00
2023-04-02T03:39:26.838Z,100.00
2023-04-02T03:44:37.823Z,100.00
2023-04-02T03:49:49.326Z,100.00
2023-04-02T03:54:53.831Z,100.00
2023-04-02T04:00:20.724Z,100.00
2023-04-02T04:05:31.507Z,100.00
2023-04-02T04:10:35.866Z,100.00
2023-04-02T04:15:52.362Z,100.00
2023-04-02T04:20:59.570Z,100.00
2023-04-02T04:26:09.223Z,100.00
2023-04-02T04:31:23.927Z,100.00
2023-04-02T04:36:33.266Z,100.00
2023-04-02T04:41:38.650Z,100.00
2023-04-02T04:47:03.535Z,100.00
2023-04-02T04:52:23.632Z,100.00
2023-04-02T04:57:31.963Z,100.00
2023-04-02T05:02:51.123Z,100.00
2023-04-02T05:07:59.850Z,100.00
2023-04-02T05:13:10.869Z,100.00
2023-04-02T05:18:18.940Z,100.00
2023-04-02T05:23:34.438Z,100.00
2023-04-02T05:28:52.754Z,100.00
2023-04-02T05:33:56.063Z,100.00
2023-04-02T05:38:59.165Z,100.00
2023-04-02T05:44:16.316Z,100.00
2023-04-02T05:49:27.640Z,100.00
2023-04-02T05:54:46.990Z,100.00
2023-04-02T05:59:56.242Z,100.00
2023-04-02T06:05:01.805Z,100.00
2023-04-02T06:10:07.500Z,100.00
2023-04-02T06:15:21.227Z,100.00
2023-04-02T06:20:23.000Z,100.00
2023-04-02T06:25:33.342Z,100.00
2023-04-02T06:30:40.274Z,100.00
2023-04-02T06:35:46.149Z,100.00
2023-04-02T06:41:14.345Z,100.00
2023-04-02T06:46:40.100Z,100.00
2023-04-02T06:51:45.601Z,100.00
2023-04-02T06:56:53.189Z,100.00
2023-04-02T07:02:03.630Z,100.00
2023-04-02T07:07:06.226Z,100.00
2023-04-02T07:12:14.342Z,100.00
2023-04-02T07:17:20.403Z,100.00
2023-04-02T07:22:22.397Z,100.00
2023-04-02T07:27:24.312Z,100.00
2023-04-02T07:32:26.499Z,100.00
2023-04-02T07:37:28.517Z,100.00
2023-04-02T07:42:30.884Z,100.00
2023-04-02T07:47:32.785Z,100.00
2023-04-02T07:52:42.332Z,100.00
2023-04-02T07:57:54.131Z,100.00
2023-04-02T08:02:55.968Z,100.00
2023-04-02T08:07:57.987Z,100.00
2023-04-02T08:12:59.967Z,100.00
2023-04-02T08:18:01.976Z,100.00
2023-04-02T08:23:04.032Z,100.00
2023-04-02T08:28:06.113Z,100.00
2023-04-02T08:33:08.125Z,100.00
2023-04-02T08:38:15.500Z,100.00
2023-04-02T08:43:28.651Z,100.00
2023-04-02T08:48:33.379Z,100.00
2023-04-02T08:53:39.254Z,100.00
2023-04-02T08:58:43.389Z,100.00
2023-04-02T09:03:47.333Z,100.00
2023-04-02T09:08:51.746Z,100.00
2023-04-02T09:13:58.634Z,100.00
2023-04-02T09:19:01.850Z,100.00
2023-04-02T09:24:05.246Z,100.00
2023-04-02T09:29:14.106Z,100.00
2023-04-02T09:34:33.920Z,100.00
2023-04-02T09:39:35.878Z,100.00
2023-04-02T09:44:38.684Z,100.00
2023-04-02T09:49:41.495Z,100.00
2023-04-02T09:54:44.584Z,100.00
2023-04-02T09:59:46.868Z,100.00
2023-04-02T10:04:51.725Z,100.00
2023-04-02T10:09:58.809Z,100.00
2023-04-02T10:15:03.885Z,100.00
2023-04-02T10:20:29.306Z,100.00
2023-04-02T10:25:44.009Z,100.00
2023-04-02T10:31:01.792Z,100.00
2023-04-02T10:36:40.327Z,100.00
2023-04-02T10:42:01.382Z,100.00
2023-04-02T10:47:12.680Z,100.00
2023-04-02T10:52:39.643Z,100.00
2023-04-02T10:57:44.406Z,100.00
2023-04-02T11:03:05.789Z,100.00
2023-04-02T11:08:11.018Z,98.09
2023-04-02T11:13:30.376Z,96.31
2023-04-02T11:18:37.988Z,92.99
2023-04-02T11:23:56.563Z,93.63
2023-04-02T11:29:14.105Z,91.66
2023-04-02T11:34:41.061Z,88.86
2023-04-02T11:39:53.845Z,85.00
2023-04-02T11:45:01.097Z,82.53
2023-04-02T11:50:06.678Z,80.42
2023-04-02T11:55:17.543Z,80.33
2023-04-02T12:00:58.736Z,79.27
2023-04-02T12:06:18.365Z,77.58
2023-04-02T12:11:33.206Z,76.78
2023-04-02T12:16:35.495Z,75.52
2023-04-02T12:21:37.581Z,73.78
2023-04-02T12:26:42.216Z,71.25
2023-04-02T12:31:46.345Z,70.74
2023-04-02T12:37:02.856Z,70.56
2023-04-02T12:42:05.274Z,72.26
2023-04-02T12:47:08.333Z,70.81
2023-04-02T12:52:14.468Z,68.75
2023-04-02T12:57:20.861Z,69.99
2023-04-02T13:02:29.809Z,68.77
2023-04-02T13:07:33.698Z,66.75
2023-04-02T13:12:39.042Z,67.95
2023-04-02T13:17:49.933Z,67.13
2023-04-02T13:22:51.912Z,66.28
2023-04-02T13:27:54.312Z,66.34
2023-04-02T13:32:57.137Z,65.91
2023-04-02T13:38:02.399Z,67.17
2023-04-02T13:43:06.276Z,67.31
2023-04-02T13:48:15.523Z,66.82
2023-04-02T13:53:31.131Z,67.08
2023-04-02T13:58:33.007Z,65.59
2023-04-02T14:03:35.293Z,65.51
2023-04-02T14:09:03.820Z,65.42
2023-04-02T14:14:11.913Z,65.16
2023-04-02T14:19:46.152Z,63.45
2023-04-02T14:25:19.390Z,62.80
2023-04-02T14:30:51.080Z,62.81
2023-04-02T14:36:16.590Z,63.83
2023-04-02T14:41:45.796Z,63.65
2023-04-02T14:46:49.534Z,61.71
2023-04-02T14:52:01.549Z,60.32
2023-04-02T14:57:18.914Z,59.31
2023-04-02T15:02:44.550Z,59.04
2023-04-02T15:08:02.881Z,58.69
2023-04-02T15:13:14.766Z,57.60
2023-04-02T15:18:17.157Z,57.76
2023-04-02T15:23:31.123Z,58.52
2023-04-02T15:28:46.103Z,56.47
2023-04-02T15:34:20.520Z,56.62
2023-04-02T15:39:50.886Z,56.84
2023-04-02T15:45:09.448Z,56.72
2023-04-02T15:50:48.808Z,55.22
2023-04-02T15:56:16.386Z,54.26
2023-04-02T16:01:50.830Z,55.36
2023-04-02T16:07:17.690Z,54.99
2023-04-02T16:12:21.212Z,55.01
2023-04-02T16:17:28.002Z,55.95
2023-04-02T16:22:33.234Z,56.65
2023-04-02T16:27:42.722Z,55.54
2023-04-02T16:32:55.202Z,54.77
2023-04-02T16:38:15.749Z,52.53
2023-04-02T16:43:33.600Z,49.76
2023-04-02T16:48:44.186Z,48.61
2023-04-02T16:54:02.677Z,49.86
2023-04-02T16:59:29.863Z,51.69
2023-04-02T17:04:47.791Z,52.79
2023-04-02T17:09:53.337Z,52.83
2023-04-02T17:15:24.787Z,53.06
2023-04-02T17:20:30.987Z,54.26
2023-04-02T17:26:01.626Z,55.87
2023-04-02T17:31:14.063Z,58.10
2023-04-02T17:36:52.189Z,59.71
2023-04-02T17:42:02.616Z,61.07
2023-04-02T17:47:31.271Z,61.96
2023-04-02T17:52:53.622Z,62.96
2023-04-02T17:58:42.106Z,63.90
2023-04-02T18:03:59.658Z,64.52
2023-04-02T18:09:17.690Z,65.16
2023-04-02T18:14:48.962Z,65.76
2023-04-02T18:20:07.779Z,66.34
2023-04-02T18:25:25.568Z,66.69
2023-04-02T18:30:46.744Z,67.41
2023-04-02T18:36:10.278Z,68.17
2023-04-02T18:41:42.924Z,68.98
2023-04-02T18:46:57.527Z,69.47
2023-04-02T18:52:19.420Z,69.83
2023-04-02T18:57:35.798Z,70.37
2023-04-02T19:02:51.058Z,70.97
2023-04-02T19:08:02.439Z,71.49
2023-04-02T19:13:14.909Z,72.03
2023-04-02T19:18:49.589Z,72.86
2023-04-02T19:24:22.697Z,73.57
2023-04-02T19:29:31.131Z,74.27
2023-04-02T19:34:48.067Z,75.05
2023-04-02T19:39:57.227Z,75.63
2023-04-02T19:45:00.729Z,76.23
2023-04-02T19:50:04.802Z,77.12
2023-04-02T19:55:08.061Z,77.55
2023-04-02T20:00:14.550Z,78.10
2023-04-02T20:05:16.432Z,78.59
2023-04-02T20:10:21.911Z,79.42
2023-04-02T20:15:25.396Z,79.91
2023-04-02T20:20:27.993Z,80.39
2023-04-02T20:25:30.789Z,80.89
2023-04-02T20:30:33.205Z,81.19
2023-04-02T20:35:37.497Z,81.23
2023-04-02T20:40:43.250Z,81.71
2023-04-02T20:45:54.350Z,82.08
2023-04-02T20:50:58.036Z,82.36
2023-04-02T20:56:04.176Z,83.01
2023-04-02T21:01:11.709Z,83.52
2023-04-02T21:06:16.728Z,83.68
2023-04-02T21:11:21.527Z,83.90
2023-04-02T21:16:29.165Z,84.10
2023-04-02T21:21:31.909Z,84.27
2023-04-02T21:26:38.106Z,84.52
2023-04-02T21:31:42.250Z,84.56
2023-04-02T21:36:46.429Z,84.78
2023-04-02T21:41:50.772Z,85.41
2023-04-02T21:46:54.097Z,86.28
2023-04-02T21:51:56.360Z,87.12
2023-04-02T21:56:58.349Z,87.72
2023-04-02T22:02:00.485Z,88.38
2023-04-02T22:07:02.393Z,88.62
2023-04-02T22:12:07.355Z,89.01
2023-04-02T22:17:09.140Z,89.58
2023-04-02T22:22:10.892Z,89.43
2023-04-02T22:27:12.667Z,89.84
2023-04-02T22:32:14.438Z,89.83
2023-04-02T22:37:16.420Z,89.16
2023-04-02T22:42:18.191Z,88.49
2023-04-02T22:47:20.074Z,88.03
2023-04-02T22:52:21.989Z,87.69
2023-04-02T22:57:24.987Z,87.55
2023-04-02T23:02:27.176Z,87.24
2023-04-02T23:07:29.425Z,86.96
2023-04-02T23:12:31.707Z,86.68
2023-04-02T23:17:35.433Z,86.37
2023-04-02T23:22:37.918Z,86.01
2023-04-02T23:27:40.024Z,85.75
2023-04-02T23:32:41.794Z,85.46
2023-04-02T23:37:43.551Z,85.14
2023-04-02T23:42:45.326Z,85.10
2023-04-02T23:47:47.223Z,84.99
2023-04-02T23:52:49.190Z,84.36
2023-04-02T23:57:51.411Z,84.02
